Airfield :







YOU CAN JOIN US ON...

 
LOGIN :

Register | Disclaimer

   EN    FR    IT 

 









Legend :    VFR   Marginal VFR   IFR   Intensive IFR   Very Intensive IFR
Visi :
Ceiling :
>= 8 km
>= 3000ft
5 to 8 km
1000 to 3000 ft
1500m to 5 km
500 to 1000 ft
800 to 1500m
200 to 500 ft
< 800m
< 200 ft
Symbols :   Thunderstorms  Fog  Heavy snow  Heavy precipitations  Wind > 20 kt






- Airport Elevation : 276 ft
- IATA code : BVB


SBBV - Boa Vista Int.

CURRENT METAR :
  • 150400Z 07005KT CAVOK 27/23 Q1012

EXPIRED METARs :
  • 150300Z 08005KT CAVOK 28/22 Q1012
  • 150200Z 06002KT CAVOK 28/22 Q1012

TAF TAF SBBV
Valid from the 15 at 00:00 until the 16 at 00:00 UTC


142130Z 1500/1524 10005KT 9999 SCT020 TN25/1509Z TX33/1517Z
BECMG 1500/1502 07005KT
BECMG 1507/1509 05005KT
BECMG 1514/1516 10010KT
BECMG 1517/1519 12007KT
PROB30 1520/1523 SCT035 FEW045TCU RMK PGW



MET'MAP, your aeronautical weather chart ! - Copyright ORBIFLY December 2007 - Disclaimer

ORBIFLY MET'MAP TEAM :

Programming & Development : Alexandra Zaïnal
Concept & Development : Baudouin d'Aumeries
Co-Development & Prog : Marc-Olivier Méhu
Technical & hardware support : Manuel Goepfert

Contact : metmap@orbifly.com




SOURCES & CREDITS :

   NOAA